Time;durP1;ratioP1;P1;durP2;ratioP2;P2;SDS_P1;SDS_P2;PMS_P1;PMS_P2;Temp;Humidity;BMP_temperature;BMP_pressure;BME280_temperature;BME280_humidity;BME280_pressure;Samples;Min_cycle;Max_cycle;Signal;HPM_P1;HPM_P2
2022/08/09 00:00:33;;;;;;;13.07;6.45;;;16.90;84.90;;;;;;6336309;22;20070;-83
2022/08/09 00:02:59;;;;;;;13.15;6.35;;;16.90;84.90;;;;;;6335326;22;20441;-81
2022/08/09 00:05:25;;;;;;;12.07;5.45;;;16.80;85.00;;;;;;6334288;22;20007;-78
2022/08/09 00:07:52;;;;;;;12.88;6.93;;;16.80;85.10;;;;;;6335985;22;20082;-82
2022/08/09 00:10:19;;;;;;;13.95;6.78;;;16.80;85.10;;;;;;6334001;22;19998;-82
2022/08/09 00:12:45;;;;;;;8.98;6.55;;;16.80;85.20;;;;;;6335605;22;19998;-83
2022/08/09 00:15:12;;;;;;;15.18;6.82;;;16.80;85.20;;;;;;6334738;22;19995;-85
2022/08/09 00:17:38;;;;;;;15.73;6.78;;;16.80;85.30;;;;;;6335700;22;19999;-75
2022/08/09 00:20:05;;;;;;;11.82;6.30;;;16.80;85.40;;;;;;6335298;22;20010;-73
2022/08/09 00:22:32;;;;;;;18.17;7.25;;;16.70;85.40;;;;;;6334969;22;20003;-82
2022/08/09 00:24:58;;;;;;;9.60;6.32;;;16.70;85.40;;;;;;6336143;22;19998;-69
2022/08/09 00:27:25;;;;;;;13.05;6.25;;;16.70;85.50;;;;;;6334415;22;20106;-77
2022/08/09 00:29:51;;;;;;;19.55;6.50;;;16.70;85.50;;;;;;6335598;22;20044;-79
2022/08/09 00:32:18;;;;;;;11.30;4.93;;;16.70;85.70;;;;;;6334329;22;19995;-81
2022/08/09 00:34:44;;;;;;;14.60;6.03;;;16.70;85.90;;;;;;6335218;22;20430;-73
2022/08/09 00:37:11;;;;;;;10.25;5.88;;;16.70;85.90;;;;;;6334107;22;20445;-85
2022/08/09 00:39:37;;;;;;;26.58;7.70;;;16.70;85.90;;;;;;6334379;22;20515;-81
2022/08/09 00:42:04;;;;;;;13.10;6.22;;;16.70;86.00;;;;;;6334540;22;20078;-82
2022/08/09 00:44:31;;;;;;;11.25;4.85;;;16.70;86.10;;;;;;6333389;22;20056;-75
2022/08/09 00:46:57;;;;;;;15.77;5.55;;;16.70;86.10;;;;;;6334936;22;20044;-81
2022/08/09 00:49:24;;;;;;;13.45;5.88;;;16.60;86.10;;;;;;6333011;22;20403;-79
2022/08/09 00:51:51;;;;;;;22.60;5.90;;;16.70;86.20;;;;;;6333934;22;20013;-79
2022/08/09 00:54:17;;;;;;;17.05;5.07;;;16.60;86.20;;;;;;6333290;22;20002;-76
2022/08/09 00:56:44;;;;;;;11.75;5.32;;;16.60;86.20;;;;;;6332941;22;20089;-80
2022/08/09 00:59:10;;;;;;;17.95;6.70;;;16.60;86.30;;;;;;6334157;22;20414;-82
2022/08/09 01:01:39;;;;;;;19.05;6.40;;;16.60;86.20;;;;;;6333050;22;20625;-77
2022/08/09 01:04:36;;;;;;;14.88;7.07;;;16.60;86.40;;;;;;6334134;22;20007;-80
2022/08/09 01:07:23;;;;;;;15.63;5.53;;;16.50;86.30;;;;;;6333335;22;19999;-82
2022/08/09 01:10:04;;;;;;;19.50;4.93;;;16.60;86.40;;;;;;6334427;22;20002;-81
2022/08/09 01:13:12;;;;;;;12.00;6.05;;;16.60;86.40;;;;;;6334686;22;20006;-80
2022/08/09 01:15:44;;;;;;;9.82;5.30;;;16.50;86.40;;;;;;6301847;22;20003;-75
2022/08/09 01:18:18;;;;;;;16.85;5.68;;;16.50;86.40;;;;;;6336408;22;20121;-81
2022/08/09 01:21:09;;;;;;;13.20;5.75;;;16.50;86.50;;;;;;6335446;22;20299;-81
2022/08/09 01:23:59;;;;;;;10.63;6.35;;;16.50;86.50;;;;;;6334708;22;19999;-80
2022/08/09 01:26:44;;;;;;;15.60;6.85;;;16.50;86.60;;;;;;6335791;22;20003;-78
2022/08/09 01:29:15;;;;;;;14.13;7.30;;;16.50;86.60;;;;;;6335448;22;20048;-80
2022/08/09 01:31:44;;;;;;;19.80;7.30;;;16.50;86.70;;;;;;6336021;22;20207;-79
2022/08/09 01:34:14;;;;;;;28.33;7.57;;;16.50;86.90;;;;;;6335965;22;19999;-79
2022/08/09 01:36:42;;;;;;;16.63;6.65;;;16.50;86.90;;;;;;6334555;22;20003;-79
2022/08/09 01:39:10;;;;;;;16.17;6.85;;;16.50;86.90;;;;;;6335389;22;20411;-78
2022/08/09 01:41:40;;;;;;;13.35;7.03;;;16.50;87.00;;;;;;6333713;22;20090;-81
2022/08/09 01:44:08;;;;;;;13.32;5.32;;;16.50;87.00;;;;;;6336311;22;20438;-81
2022/08/09 01:46:40;;;;;;;11.50;6.38;;;16.50;87.10;;;;;;6335360;22;20323;-79
2022/08/09 01:49:14;;;;;;;13.48;6.30;;;16.50;87.20;;;;;;6335112;22;20399;-76
2022/08/09 01:51:50;;;;;;;13.13;5.07;;;16.50;87.30;;;;;;6335855;22;20029;-78
2022/08/09 01:54:18;;;;;;;10.82;4.82;;;16.50;87.40;;;;;;6335011;22;20434;-75
2022/08/09 01:56:47;;;;;;;8.23;3.83;;;16.50;87.40;;;;;;6336389;22;19995;-83
2022/08/09 01:59:17;;;;;;;15.05;5.22;;;16.50;87.40;;;;;;6335176;22;19995;-81
2022/08/09 02:01:46;;;;;;;13.30;4.25;;;16.50;87.40;;;;;;6335633;22;20005;-72
2022/08/09 02:04:14;;;;;;;22.13;6.03;;;16.40;87.40;;;;;;6335413;22;20503;-73
2022/08/09 02:09:30;;;;;;;10.02;4.93;;;16.40;87.40;;;;;;6335300;22;20018;-72
2022/08/09 02:11:58;;;;;;;13.05;4.43;;;16.40;87.40;;;;;;6334550;22;19999;-79
2022/08/09 02:14:26;;;;;;;11.82;5.50;;;16.40;87.50;;;;;;6335523;22;20022;-68
2022/08/09 02:16:55;;;;;;;8.35;3.60;;;16.40;87.40;;;;;;6334466;22;20006;-78
2022/08/09 02:19:21;;;;;;;9.32;4.20;;;16.40;87.30;;;;;;6334369;22;19998;-76
2022/08/09 02:21:53;;;;;;;12.80;4.97;;;16.40;87.40;;;;;;6335455;22;19994;-78
2022/08/09 02:24:24;;;;;;;18.20;5.20;;;16.40;87.60;;;;;;6333765;22;20014;-76
2022/08/09 02:26:56;;;;;;;12.77;4.05;;;16.40;87.70;;;;;;6335404;22;20461;-76
2022/08/09 02:29:28;;;;;;;10.77;4.55;;;16.40;87.80;;;;;;6333402;22;20018;-77
2022/08/09 02:32:00;;;;;;;16.23;4.45;;;16.30;87.80;;;;;;6335194;22;20049;-73
2022/08/09 02:34:31;;;;;;;14.75;5.18;;;16.40;87.90;;;;;;6334619;22;20422;-76
2022/08/09 02:37:01;;;;;;;13.05;3.63;;;16.40;88.20;;;;;;6334196;22;20438;-79
2022/08/09 02:39:37;;;;;;;16.00;3.58;;;16.40;88.40;;;;;;6334915;22;19999;-71
2022/08/09 02:42:09;;;;;;;8.35;4.30;;;16.40;88.80;;;;;;6334343;22;20006;-75
2022/08/09 02:44:39;;;;;;;12.98;4.13;;;16.40;88.90;;;;;;6334922;22;20009;-74
2022/08/09 02:47:12;;;;;;;12.15;3.78;;;16.40;89.10;;;;;;6334333;22;20041;-68
2022/08/09 02:49:48;;;;;;;7.20;4.43;;;16.40;88.90;;;;;;6334103;22;20326;-79
2022/08/09 02:52:16;;;;;;;;;;;16.40;88.60;;;;;;6335474;22;20025;-81
2022/08/09 02:54:43;;;;;;;10.70;3.72;;;16.40;88.30;;;;;;6333731;22;19899;-77
2022/08/09 02:57:12;;;;;;;12.25;4.07;;;16.30;88.10;;;;;;6335046;22;20003;-77
2022/08/09 02:59:40;;;;;;;13.60;4.57;;;16.30;88.00;;;;;;6333332;22;20044;-79
2022/08/09 03:02:12;;;;;;;9.63;4.05;;;16.30;87.80;;;;;;6334598;22;20002;-75
2022/08/09 03:04:40;;;;;;;13.25;4.05;;;16.30;87.60;;;;;;6334523;22;20093;-79
2022/08/09 03:07:08;;;;;;;16.13;5.25;;;16.30;87.90;;;;;;6334590;22;20003;-76
2022/08/09 03:09:37;;;;;;;11.23;5.40;;;16.30;88.10;;;;;;6334580;22;20026;-69
2022/08/09 03:12:04;;;;;;;11.82;4.47;;;16.30;88.40;;;;;;6333576;22;20006;-79
2022/08/09 03:14:32;;;;;;;11.75;4.40;;;16.30;88.50;;;;;;6334800;22;20003;-78
2022/08/09 03:17:02;;;;;;;13.82;4.65;;;16.30;88.60;;;;;;6333344;22;19998;-81
2022/08/09 03:19:30;;;;;;;15.82;4.10;;;16.30;88.60;;;;;;6334431;22;20086;-79
2022/08/09 03:21:58;;;;;;;11.98;4.13;;;16.30;88.60;;;;;;6334149;22;20006;-78
2022/08/09 03:24:25;;;;;;;17.30;4.57;;;16.30;88.10;;;;;;6333898;22;20075;-70
2022/08/09 03:26:52;;;;;;;14.93;4.15;;;16.20;87.70;;;;;;6335628;22;20005;-75
2022/08/09 03:29:20;;;;;;;8.40;3.58;;;16.20;87.60;;;;;;6333448;22;20011;-71
2022/08/09 03:31:48;;;;;;;15.80;4.22;;;16.20;87.70;;;;;;6335758;22;20002;-76
2022/08/09 03:34:14;;;;;;;12.52;3.38;;;16.20;87.50;;;;;;6333149;22;20002;-70
2022/08/09 03:36:41;;;;;;;17.75;3.72;;;16.10;86.70;;;;;;6334474;22;19994;-77
2022/08/09 03:39:07;;;;;;;19.27;10.73;;;16.10;86.20;;;;;;6333487;22;19998;-81
2022/08/09 03:41:34;;;;;;;36.00;22.45;;;16.00;86.20;;;;;;6335209;22;20038;-74
2022/08/09 03:44:00;;;;;;;23.17;10.27;;;16.00;86.30;;;;;;6307145;22;20109;-76
2022/08/09 03:46:27;;;;;;;16.48;6.95;;;16.00;86.50;;;;;;6333552;22;20022;-69
2022/08/09 03:48:58;;;;;;;14.60;4.95;;;16.00;86.60;;;;;;6334554;22;20030;-74
2022/08/09 03:51:26;;;;;;;10.23;3.83;;;16.00;86.40;;;;;;6333303;22;20005;-70
2022/08/09 03:53:53;;;;;;;12.45;4.03;;;15.90;85.90;;;;;;6334427;22;20003;-79
2022/08/09 03:56:20;;;;;;;10.52;4.90;;;15.90;85.70;;;;;;6333337;22;19998;-68
2022/08/09 03:58:47;;;;;;;9.55;3.45;;;15.90;85.40;;;;;;6334090;22;20075;-71
2022/08/09 04:01:13;;;;;;;8.98;3.33;;;15.90;85.30;;;;;;6333300;22;20002;-82
2022/08/09 04:03:41;;;;;;;7.03;3.28;;;15.90;85.10;;;;;;6333342;22;20426;-71
2022/08/09 04:06:08;;;;;;;7.47;3.17;;;15.80;84.90;;;;;;6335059;22;20002;-76
2022/08/09 04:08:34;;;;;;;5.70;2.70;;;15.80;84.60;;;;;;6333245;22;20010;-72
2022/08/09 04:11:01;;;;;;;7.93;3.30;;;15.80;84.40;;;;;;6334662;22;19999;-68
2022/08/09 04:13:28;;;;;;;8.90;4.18;;;15.80;84.20;;;;;;6332666;22;20009;-74
2022/08/09 04:15:54;;;;;;;10.18;3.95;;;15.80;84.20;;;;;;6334214;22;20003;-74
2022/08/09 04:18:21;;;;;;;9.70;3.92;;;15.70;84.40;;;;;;6333321;22;19999;-69
2022/08/09 04:20:48;;;;;;;8.70;3.05;;;15.70;84.80;;;;;;6333623;22;19995;-78
2022/08/09 04:23:15;;;;;;;12.02;3.85;;;15.70;85.10;;;;;;6334476;22;20423;-72
2022/08/09 04:25:41;;;;;;;11.02;3.50;;;15.70;85.10;;;;;;6333206;22;20082;-68
2022/08/09 04:28:08;;;;;;;7.57;4.15;;;15.70;84.60;;;;;;6306565;22;20372;-74
2022/08/09 04:30:34;;;;;;;26.08;6.50;;;15.70;84.40;;;;;;6333485;22;19999;-79
2022/08/09 04:33:01;;;;;;;17.38;6.05;;;15.70;84.00;;;;;;6334811;22;20077;-67
2022/08/09 04:35:27;;;;;;;32.58;11.00;;;15.70;84.10;;;;;;6334233;22;19999;-74
2022/08/09 04:37:54;;;;;;;17.10;11.02;;;15.60;84.20;;;;;;6333935;22;20003;-74
2022/08/09 04:40:20;;;;;;;26.20;15.00;;;15.60;84.40;;;;;;6334588;22;19999;-68
2022/08/09 04:42:47;;;;;;;20.27;14.55;;;15.60;84.70;;;;;;6333724;22;20307;-73
2022/08/09 04:45:15;;;;;;;26.45;8.60;;;15.60;84.60;;;;;;6334538;22;20003;-69
2022/08/09 04:47:41;;;;;;;20.00;7.70;;;15.60;84.20;;;;;;6333269;22;20018;-77
2022/08/09 04:50:08;;;;;;;10.90;4.30;;;15.60;83.70;;;;;;6336067;22;20434;-74
2022/08/09 04:52:35;;;;;;;7.07;3.65;;;15.60;83.30;;;;;;6334205;22;19995;-68
2022/08/09 04:55:02;;;;;;;6.57;2.53;;;15.60;82.90;;;;;;6336760;22;20006;-70
2022/08/09 04:57:29;;;;;;;11.02;3.97;;;15.50;82.40;;;;;;6335382;22;20048;-68
2022/08/09 04:59:55;;;;;;;5.93;2.70;;;15.50;81.90;;;;;;6335091;22;20013;-74
2022/08/09 05:02:25;;;;;;;8.32;2.67;;;15.50;81.60;;;;;;6336117;22;20007;-69
2022/08/09 05:04:51;;;;;;;11.05;3.45;;;15.50;81.40;;;;;;6334720;22;20022;-72
2022/08/09 05:07:18;;;;;;;7.35;2.85;;;15.40;81.30;;;;;;6335635;22;20365;-68
2022/08/09 05:09:45;;;;;;;12.90;2.92;;;15.50;81.30;;;;;;6334138;22;20322;-68
2022/08/09 05:12:11;;;;;;;4.93;2.08;;;15.50;81.80;;;;;;6335876;22;20022;-80
2022/08/09 05:14:38;;;;;;;14.05;3.97;;;15.40;81.90;;;;;;6335776;22;20003;-69
2022/08/09 05:17:04;;;;;;;12.70;3.25;;;15.40;81.80;;;;;;6334721;22;20311;-68
2022/08/09 05:19:31;;;;;;;9.55;2.63;;;15.30;81.30;;;;;;6335471;22;19998;-78
2022/08/09 05:21:57;;;;;;;6.72;2.58;;;15.30;81.20;;;;;;6334657;22;19991;-77
2022/08/09 05:24:24;;;;;;;10.40;3.17;;;15.30;80.90;;;;;;6335731;22;20006;-69
2022/08/09 05:26:51;;;;;;;8.75;2.65;;;15.30;80.80;;;;;;6333626;22;20055;-72
2022/08/09 05:29:18;;;;;;;12.75;3.60;;;15.30;80.70;;;;;;6336063;22;20148;-77
2022/08/09 05:31:46;;;;;;;15.77;5.07;;;15.30;80.70;;;;;;6307344;22;20311;-70
2022/08/09 05:34:14;;;;;;;9.20;5.03;;;15.30;80.70;;;;;;6335552;22;20048;-69
2022/08/09 05:36:42;;;;;;;13.70;9.10;;;15.20;81.10;;;;;;6334197;22;19995;-70
2022/08/09 05:39:08;;;;;;;16.83;8.57;;;15.20;81.40;;;;;;6334025;22;20013;-71
2022/08/09 05:41:35;;;;;;;13.75;7.05;;;15.20;81.30;;;;;;6335446;22;19999;-70
2022/08/09 05:44:02;;;;;;;7.65;4.97;;;15.20;80.80;;;;;;6334178;22;19995;-68
2022/08/09 05:46:29;;;;;;;26.25;7.68;;;15.20;80.30;;;;;;6334932;22;20018;-69
2022/08/09 05:48:55;;;;;;;10.95;4.90;;;15.10;80.50;;;;;;6333536;22;20431;-77
2022/08/09 05:51:22;;;;;;;9.68;6.32;;;15.10;80.30;;;;;;6335440;22;19999;-77
2022/08/09 05:53:49;;;;;;;6.85;5.00;;;15.10;80.20;;;;;;6334375;22;20005;-70
2022/08/09 05:56:15;;;;;;;8.15;5.47;;;15.10;80.10;;;;;;6333226;22;19994;-69
2022/08/09 05:58:42;;;;;;;10.40;4.40;;;15.10;80.00;;;;;;6335145;22;20003;-72
2022/08/09 06:01:10;;;;;;;13.35;4.95;;;15.10;79.90;;;;;;6334157;22;20038;-75
2022/08/09 06:03:36;;;;;;;11.32;6.97;;;15.10;79.80;;;;;;6334224;22;20067;-76
2022/08/09 06:06:03;;;;;;;13.52;9.18;;;15.10;79.80;;;;;;6333698;22;19995;-76
2022/08/09 06:08:29;;;;;;;13.05;7.00;;;15.10;79.70;;;;;;6334398;22;20137;-68
2022/08/09 06:10:56;;;;;;;14.32;6.57;;;15.10;79.80;;;;;;6335040;22;19995;-73
2022/08/09 06:13:23;;;;;;;12.43;5.78;;;15.10;79.70;;;;;;6334231;22;20029;-73
2022/08/09 06:15:51;;;;;;;10.45;6.47;;;15.10;79.60;;;;;;6334899;22;20034;-72
2022/08/09 06:18:19;;;;;;;11.60;6.22;;;15.10;79.50;;;;;;6333929;22;19998;-68
2022/08/09 06:20:45;;;;;;;9.25;5.38;;;15.10;79.50;;;;;;6334331;22;20569;-72
2022/08/09 06:23:11;;;;;;;15.30;6.70;;;15.10;79.50;;;;;;6333681;22;20027;-67
2022/08/09 06:25:38;;;;;;;16.00;7.60;;;15.10;79.50;;;;;;6334970;22;20007;-67
2022/08/09 06:28:06;;;;;;;11.63;5.93;;;15.00;79.50;;;;;;6333843;22;20017;-73
2022/08/09 06:30:33;;;;;;;13.18;6.18;;;15.10;79.60;;;;;;6334689;22;20030;-67
2022/08/09 06:33:00;;;;;;;19.77;10.30;;;15.00;79.80;;;;;;6334967;22;19995;-68
2022/08/09 06:35:26;;;;;;;24.60;9.88;;;15.00;80.10;;;;;;6333725;22;20188;-68
2022/08/09 06:37:53;;;;;;;12.85;6.72;;;15.00;80.30;;;;;;6334721;22;19999;-72
2022/08/09 06:40:19;;;;;;;12.95;5.55;;;15.00;80.80;;;;;;6333491;22;20127;-70
2022/08/09 06:42:46;;;;;;;12.73;6.22;;;15.00;81.00;;;;;;6334968;22;20300;-67
2022/08/09 06:45:12;;;;;;;8.88;5.93;;;15.00;81.30;;;;;;6333535;22;20319;-74
2022/08/09 06:47:39;;;;;;;8.20;4.97;;;15.00;81.60;;;;;;6335156;22;20011;-72
2022/08/09 06:50:06;;;;;;;14.65;6.25;;;15.00;81.80;;;;;;6334973;22;20010;-76
2022/08/09 06:52:33;;;;;;;12.48;6.85;;;15.00;81.90;;;;;;6334142;22;19998;-68
2022/08/09 06:54:59;;;;;;;7.85;6.63;;;15.00;81.90;;;;;;6336016;22;20005;-68
2022/08/09 06:57:26;;;;;;;10.13;6.18;;;15.00;81.90;;;;;;6333751;22;20048;-68
2022/08/09 06:59:53;;;;;;;9.32;5.88;;;15.00;81.80;;;;;;6335490;22;19999;-73
2022/08/09 07:02:19;;;;;;;10.80;6.13;;;15.10;81.90;;;;;;6334109;22;20104;-67
2022/08/09 07:04:46;;;;;;;11.32;6.70;;;15.10;82.00;;;;;;6335815;22;20427;-68
2022/08/09 07:07:14;;;;;;;9.70;5.57;;;15.10;82.00;;;;;;6334655;22;20425;-74
2022/08/09 07:09:43;;;;;;;7.90;6.00;;;15.10;82.00;;;;;;6334682;22;20007;-70
2022/08/09 07:12:10;;;;;;;7.57;6.00;;;15.10;82.10;;;;;;6335409;22;20006;-74
2022/08/09 07:14:37;;;;;;;6.03;5.10;;;15.10;82.20;;;;;;6334609;22;19994;-70
2022/08/09 07:17:04;;;;;;;7.90;4.97;;;15.20;82.30;;;;;;6335144;22;20006;-67
2022/08/09 07:19:30;;;;;;;8.88;5.88;;;15.20;82.40;;;;;;6333806;22;20539;-74
2022/08/09 07:21:57;;;;;;;8.30;5.75;;;15.20;82.60;;;;;;6335631;22;20321;-74
2022/08/09 07:24:23;;;;;;;9.40;5.85;;;15.20;82.80;;;;;;6334592;22;20009;-67
2022/08/09 07:26:50;;;;;;;6.95;5.97;;;15.20;83.00;;;;;;6334802;22;20386;-67
2022/08/09 07:29:16;;;;;;;8.25;5.75;;;15.30;83.20;;;;;;6335260;22;20307;-68
2022/08/09 07:31:43;;;;;;;11.07;5.75;;;15.30;83.20;;;;;;6334426;22;20070;-68
2022/08/09 07:34:09;;;;;;;10.32;5.35;;;15.30;83.20;;;;;;6335534;22;19999;-73
2022/08/09 07:36:36;;;;;;;9.90;6.07;;;15.40;83.40;;;;;;6333639;22;20048;-66
2022/08/09 07:39:03;;;;;;;11.30;5.60;;;15.40;83.40;;;;;;6335087;22;20005;-76
2022/08/09 07:41:30;;;;;;;10.15;5.72;;;15.40;83.50;;;;;;6334188;22;19995;-68
2022/08/09 07:43:57;;;;;;;13.30;5.93;;;15.40;83.60;;;;;;6335305;22;20018;-76
2022/08/09 07:46:23;;;;;;;6.55;5.53;;;15.50;83.90;;;;;;6334621;22;20009;-66
2022/08/09 07:48:50;;;;;;;11.43;5.45;;;15.50;84.20;;;;;;6333997;22;20017;-68
2022/08/09 07:51:17;;;;;;;10.80;6.60;;;15.60;84.80;;;;;;6335570;22;20005;-69
2022/08/09 07:53:44;;;;;;;9.63;5.40;;;15.60;85.10;;;;;;6333716;22;20002;-65
2022/08/09 07:56:11;;;;;;;11.50;5.78;;;15.70;85.30;;;;;;6335020;22;20005;-75
2022/08/09 07:58:37;;;;;;;16.02;6.65;;;15.70;85.50;;;;;;6333456;22;19999;-68
2022/08/09 08:01:04;;;;;;;13.32;5.60;;;15.70;85.70;;;;;;6335335;22;20044;-67
2022/08/09 08:03:30;;;;;;;13.65;6.10;;;15.80;85.90;;;;;;6334112;22;20417;-69
2022/08/09 08:05:57;;;;;;;18.45;6.22;;;15.80;86.00;;;;;;6334445;22;20011;-71
2022/08/09 08:08:23;;;;;;;18.10;7.80;;;15.90;86.50;;;;;;6334765;22;20019;-68
2022/08/09 08:10:50;;;;;;;18.25;6.00;;;15.90;87.00;;;;;;6333897;22;20655;-70
2022/08/09 08:13:17;;;;;;;16.00;6.35;;;16.00;87.60;;;;;;6334823;22;20002;-67
2022/08/09 08:15:44;;;;;;;11.60;6.00;;;16.10;88.20;;;;;;6333599;22;19999;-68
2022/08/09 08:18:11;;;;;;;40.28;10.20;;;16.10;88.40;;;;;;6335070;22;19999;-68
2022/08/09 08:20:37;;;;;;;26.58;8.77;;;16.20;88.50;;;;;;6333992;22;20007;-75
2022/08/09 08:23:05;;;;;;;19.67;7.28;;;16.20;88.70;;;;;;6334153;22;20093;-67
2022/08/09 08:25:32;;;;;;;16.08;6.47;;;16.20;88.90;;;;;;6334678;22;19999;-73
2022/08/09 08:27:59;;;;;;;14.10;6.00;;;16.30;89.40;;;;;;6333741;22;20457;-75
2022/08/09 08:30:25;;;;;;;14.57;6.22;;;16.30;89.80;;;;;;6334931;22;20319;-69
2022/08/09 08:32:52;;;;;;;12.15;6.10;;;16.30;90.10;;;;;;6333281;22;20187;-67
2022/08/09 08:35:19;;;;;;;13.13;6.43;;;16.40;90.30;;;;;;6334771;22;20078;-69
2022/08/09 08:37:45;;;;;;;14.50;7.18;;;16.40;90.40;;;;;;6334219;22;20006;-71
2022/08/09 08:40:13;;;;;;;13.05;5.88;;;16.50;90.60;;;;;;6334973;22;20022;-67
2022/08/09 08:42:41;;;;;;;8.93;5.13;;;16.50;90.70;;;;;;6334182;22;20734;-68
2022/08/09 08:45:09;;;;;;;15.50;6.22;;;16.60;90.80;;;;;;6333725;22;20082;-67
2022/08/09 08:47:38;;;;;;;13.63;5.60;;;16.70;90.80;;;;;;6335102;22;19999;-75
2022/08/09 08:50:06;;;;;;;14.50;7.50;;;16.70;90.90;;;;;;6333169;22;20086;-68
2022/08/09 08:52:33;;;;;;;12.10;5.68;;;16.70;90.90;;;;;;6334573;22;19994;-69
2022/08/09 08:55:01;;;;;;;11.82;5.00;;;16.80;90.90;;;;;;6333174;22;20109;-70
2022/08/09 08:57:28;;;;;;;11.23;5.47;;;16.90;90.90;;;;;;6334093;22;20003;-68
2022/08/09 08:59:55;;;;;;;11.27;5.28;;;16.90;90.90;;;;;;6334666;22;20005;-76
2022/08/09 09:02:29;;;;;;;13.38;5.30;;;17.00;90.90;;;;;;6333124;22;19999;-75
2022/08/09 09:04:57;;;;;;;14.45;6.93;;;17.00;90.80;;;;;;6334527;22;20038;-67
2022/08/09 09:07:25;;;;;;;21.08;5.57;;;17.10;90.80;;;;;;6333248;22;20002;-67
2022/08/09 09:09:53;;;;;;;18.77;4.82;;;17.10;90.80;;;;;;6333708;22;20434;-69
2022/08/09 09:12:26;;;;;;;10.60;4.47;;;17.20;90.80;;;;;;6333088;22;19999;-68
2022/08/09 09:14:53;;;;;;;9.10;5.28;;;17.30;90.80;;;;;;6335212;22;20322;-67
2022/08/09 09:17:20;;;;;;;11.93;4.63;;;17.40;90.70;;;;;;6333826;22;20079;-67
2022/08/09 09:19:46;;;;;;;16.92;6.15;;;17.40;90.60;;;;;;6332563;22;20003;-68
2022/08/09 09:22:15;;;;;;;8.73;4.53;;;17.50;90.50;;;;;;6333819;22;20082;-67
2022/08/09 09:24:44;;;;;;;16.42;6.78;;;17.50;90.30;;;;;;6333524;22;20002;-68
2022/08/09 09:27:15;;;;;;;8.48;4.20;;;17.50;90.10;;;;;;6334377;22;20003;-68
2022/08/09 09:29:43;;;;;;;15.45;6.13;;;17.60;89.90;;;;;;6333405;22;20064;-75
2022/08/09 09:32:11;;;;;;;11.93;4.28;;;17.70;89.10;;;;;;6334344;22;20003;-69
2022/08/09 09:34:38;;;;;;;10.75;4.82;;;17.70;88.50;;;;;;6335518;22;20100;-67
2022/08/09 09:37:05;;;;;;;13.80;4.80;;;17.70;88.20;;;;;;6336049;22;20440;-73
2022/08/09 09:39:33;;;;;;;11.43;5.78;;;17.80;88.00;;;;;;6335979;22;20088;-67
2022/08/09 09:42:03;;;;;;;16.83;5.60;;;17.80;87.70;;;;;;6334907;22;20005;-68
2022/08/09 09:44:33;;;;;;;11.65;4.78;;;17.90;87.50;;;;;;6336423;22;20334;-67
2022/08/09 09:47:15;;;;;;;8.77;4.75;;;17.90;87.10;;;;;;6307263;22;20003;-74
2022/08/09 09:49:53;;;;;;;10.90;4.88;;;18.00;86.90;;;;;;6335522;22;20031;-66
2022/08/09 09:52:20;;;;;;;6.88;3.22;;;18.00;86.50;;;;;;6336463;22;19995;-75
2022/08/09 09:54:47;;;;;;;13.52;4.38;;;18.10;85.10;;;;;;6335313;22;20026;-69
2022/08/09 09:57:23;;;;;;;12.45;5.03;;;18.10;84.20;;;;;;6336152;22;20034;-68
2022/08/09 09:59:54;;;;;;;9.88;4.57;;;18.10;83.30;;;;;;6333924;22;20403;-74
2022/08/09 10:02:21;;;;;;;10.60;3.95;;;18.20;83.20;;;;;;6336082;22;20434;-69
2022/08/09 10:05:09;;;;;;;14.77;4.80;;;18.20;82.90;;;;;;6335665;22;20007;-71
2022/08/09 10:07:35;;;;;;;14.73;5.85;;;18.30;83.40;;;;;;6335607;22;20006;-69
2022/08/09 10:10:04;;;;;;;15.30;6.07;;;18.30;83.80;;;;;;6334958;22;19999;-70
2022/08/09 10:12:32;;;;;;;14.02;5.10;;;18.40;84.30;;;;;;6334473;22;20002;-68
2022/08/09 10:15:06;;;;;;;17.42;4.43;;;18.40;84.60;;;;;;6336569;22;20026;-68
2022/08/09 10:17:35;;;;;;;9.25;4.68;;;18.40;84.60;;;;;;6334843;22;19999;-75
2022/08/09 10:20:06;;;;;;;7.45;3.72;;;18.50;83.90;;;;;;6335684;22;20027;-78
2022/08/09 10:22:37;;;;;;;18.27;5.50;;;18.50;83.50;;;;;;6334897;22;19998;-70
2022/08/09 10:25:06;;;;;;;17.42;5.50;;;18.50;83.00;;;;;;6334233;22;20010;-73
2022/08/09 10:27:33;;;;;;;34.10;14.77;;;18.60;82.60;;;;;;6335526;22;20002;-72
2022/08/09 10:30:03;;;;;;;23.33;8.07;;;18.70;82.40;;;;;;6335095;22;20497;-70
2022/08/09 10:32:30;;;;;;;20.25;8.27;;;18.80;82.40;;;;;;6335316;22;20003;-73
2022/08/09 10:34:56;;;;;;;12.98;5.00;;;18.90;80.80;;;;;;6334674;22;19999;-70
2022/08/09 10:37:23;;;;;;;10.73;7.47;;;18.90;81.00;;;;;;6334300;22;20011;-69
2022/08/09 10:39:52;;;;;;;15.70;6.82;;;19.00;81.10;;;;;;6335823;22;19995;-70
2022/08/09 10:42:19;;;;;;;19.00;7.43;;;19.00;81.30;;;;;;6334444;22;20410;-72
2022/08/09 10:44:53;;;;;;;16.05;6.93;;;19.00;81.20;;;;;;6335586;22;19995;-72
2022/08/09 10:47:48;;;;;;;25.13;13.55;;;19.00;81.10;;;;;;6333551;22;20037;-69
2022/08/09 10:50:23;;;;;;;20.65;10.63;;;19.10;81.40;;;;;;6335387;22;20010;-69
2022/08/09 10:53:18;;;;;;;25.17;9.97;;;19.10;81.60;;;;;;6334956;22;20053;-74
2022/08/09 10:55:45;;;;;;;21.92;8.63;;;19.10;82.30;;;;;;6333680;22;20037;-78
2022/08/09 10:58:30;;;;;;;13.93;6.47;;;19.30;82.70;;;;;;6335357;22;20069;-71
2022/08/09 11:00:57;;;;;;;16.98;7.85;;;19.30;81.90;;;;;;6333790;22;19998;-78
2022/08/09 11:03:25;;;;;;;15.65;7.20;;;19.30;80.50;;;;;;6334141;22;20413;-74
2022/08/09 11:06:20;;;;;;;15.60;6.88;;;19.40;80.00;;;;;;6334767;22;20006;-70
2022/08/09 11:08:48;;;;;;;28.35;5.68;;;19.40;80.20;;;;;;6333277;22;20064;-68
2022/08/09 11:11:18;;;;;;;17.90;7.28;;;19.50;80.10;;;;;;6335043;22;20049;-69
2022/08/09 11:13:45;;;;;;;14.98;7.68;;;19.50;79.70;;;;;;6333055;22;20477;-75
2022/08/09 11:16:38;;;;;;;28.25;18.38;;;19.60;79.30;;;;;;6334543;22;20006;-70
2022/08/09 11:19:06;;;;;;;17.45;8.82;;;19.60;79.30;;;;;;6333282;22;20371;-68
2022/08/09 11:21:56;;;;;;;16.42;7.95;;;19.70;79.40;;;;;;6333284;22;20369;-70
2022/08/09 11:24:22;;;;;;;17.55;7.63;;;19.70;78.90;;;;;;6334421;22;20007;-68
2022/08/09 11:26:49;;;;;;;14.35;5.20;;;19.80;78.50;;;;;;6333410;22;20022;-68
2022/08/09 11:29:53;;;;;;;10.63;4.63;;;19.80;78.00;;;;;;6334798;22;20086;-69
2022/08/09 11:32:40;;;;;;;18.17;6.93;;;19.90;77.60;;;;;;6334912;22;20002;-69
2022/08/09 11:35:14;;;;;;;11.18;3.65;;;19.90;76.50;;;;;;6333633;22;20013;-74
2022/08/09 11:37:41;;;;;;;16.17;3.30;;;19.90;76.30;;;;;;6334520;22;20009;-71
2022/08/09 11:40:15;;;;;;;8.23;3.05;;;19.90;76.20;;;;;;6334062;22;19999;-69
2022/08/09 11:42:45;;;;;;;11.90;3.70;;;19.90;75.80;;;;;;6333799;22;20009;-69
2022/08/09 11:45:27;;;;;;;12.20;4.25;;;20.00;75.20;;;;;;6335158;22;20052;-74
2022/08/09 11:47:59;;;;;;;7.72;3.63;;;20.00;75.00;;;;;;6332986;22;20030;-74
2022/08/09 11:50:27;;;;;;;7.43;2.65;;;20.10;74.80;;;;;;6334779;22;20077;-70
2022/08/09 11:52:59;;;;;;;9.98;3.30;;;20.10;74.50;;;;;;6333733;22;20010;-75
2022/08/09 11:55:44;;;;;;;7.32;2.90;;;20.10;74.40;;;;;;6333700;22;20010;-74
2022/08/09 11:58:13;;;;;;;10.63;3.53;;;20.20;74.20;;;;;;6334627;22;19999;-79
2022/08/09 12:00:51;;;;;;;15.07;5.50;;;20.20;74.30;;;;;;6333695;22;20006;-74
2022/08/09 12:03:21;;;;;;;14.05;5.68;;;20.20;74.10;;;;;;6334451;22;20059;-68
2022/08/09 12:05:48;;;;;;;12.25;3.80;;;20.30;74.10;;;;;;6333308;22;20007;-74
2022/08/09 12:08:16;;;;;;;9.32;3.50;;;20.30;74.10;;;;;;6333561;22;20334;-71
2022/08/09 12:10:46;;;;;;;14.88;3.55;;;20.30;73.70;;;;;;6333564;22;20081;-72
2022/08/09 12:13:41;;;;;;;8.15;3.13;;;20.30;73.10;;;;;;6332576;22;20006;-75
2022/08/09 12:16:12;;;;;;;11.88;3.40;;;20.40;72.70;;;;;;6307080;22;20007;-73
2022/08/09 12:18:42;;;;;;;7.75;3.72;;;20.50;72.40;;;;;;6304155;22;20002;-76
2022/08/09 12:21:10;;;;;;;9.20;2.67;;;20.50;72.30;;;;;;6334868;22;20841;-71
2022/08/09 12:23:46;;;;;;;10.35;3.42;;;20.50;71.90;;;;;;6334210;22;20078;-70
2022/08/09 12:26:13;;;;;;;11.23;3.47;;;20.50;71.50;;;;;;6334051;22;20002;-71
2022/08/09 12:28:51;;;;;;;10.98;3.28;;;20.50;71.60;;;;;;6334317;22;20026;-72
2022/08/09 12:31:23;;;;;;;12.80;4.13;;;20.50;72.00;;;;;;6332060;22;19999;-75
2022/08/09 12:33:49;;;;;;;9.13;3.75;;;20.60;72.20;;;;;;6334745;22;20077;-73
2022/08/09 12:36:16;;;;;;;11.98;3.88;;;20.60;72.50;;;;;;6332786;22;20434;-73
2022/08/09 12:38:43;;;;;;;11.45;3.83;;;20.60;73.00;;;;;;6325447;22;20041;-73
2022/08/09 12:41:10;;;;;;;13.93;5.43;;;20.60;73.40;;;;;;6333743;22;20093;-72
2022/08/09 12:43:38;;;;;;;9.13;4.18;;;20.60;73.90;;;;;;6332584;22;20440;-72
2022/08/09 12:46:06;;;;;;;7.32;3.58;;;20.60;74.50;;;;;;6333685;22;20006;-72
2022/08/09 12:48:33;;;;;;;9.30;4.18;;;20.60;75.70;;;;;;6332425;22;20045;-72
2022/08/09 12:51:00;;;;;;;8.45;4.65;;;20.60;75.40;;;;;;6333834;22;19999;-71